createdAt,value
2023-04-16T00:02:25.733Z,7.03
2023-04-16T00:05:28.428Z,6.93
2023-04-16T00:08:30.583Z,6.83
2023-04-16T00:11:33.039Z,6.82
2023-04-16T00:14:35.334Z,6.78
2023-04-16T00:17:37.841Z,6.77
2023-04-16T00:20:40.086Z,6.79
2023-04-16T00:23:42.753Z,6.84
2023-04-16T00:26:46.339Z,6.84
2023-04-16T00:29:49.047Z,6.77
2023-04-16T00:32:51.273Z,6.78
2023-04-16T00:35:53.858Z,6.67
2023-04-16T00:38:57.166Z,6.57
2023-04-16T00:41:59.742Z,6.56
2023-04-16T00:45:02.159Z,6.64
2023-04-16T00:48:05.949Z,6.75
2023-04-16T00:51:08.759Z,6.96
2023-04-16T00:54:11.257Z,6.87
2023-04-16T00:57:14.431Z,6.77
2023-04-16T01:00:17.199Z,6.77
2023-04-16T01:03:19.781Z,6.72
2023-04-16T01:06:23.720Z,6.67
2023-04-16T01:09:26.311Z,6.71
2023-04-16T01:12:29.066Z,6.84
2023-04-16T01:15:31.706Z,6.75
2023-04-16T01:18:35.675Z,6.78
2023-04-16T01:21:37.966Z,6.78
2023-04-16T01:24:40.685Z,6.73
2023-04-16T01:27:45.772Z,6.86
2023-04-16T01:30:48.304Z,6.79
2023-04-16T01:33:51.563Z,6.76
2023-04-16T01:36:54.056Z,6.79
2023-04-16T01:39:56.382Z,6.81
2023-04-16T01:42:58.871Z,6.75
2023-04-16T01:46:20.996Z,6.84
2023-04-16T01:49:23.593Z,6.71
2023-04-16T01:52:25.874Z,6.59
2023-04-16T01:55:28.410Z,6.49
2023-04-16T01:58:32.633Z,6.43
2023-04-16T02:01:35.629Z,6.49
2023-04-16T02:04:43.830Z,6.61
2023-04-16T02:07:46.106Z,6.53
2023-04-16T02:10:50.592Z,6.51
2023-04-16T02:13:52.830Z,6.44
2023-04-16T02:16:55.504Z,6.38
2023-04-16T02:19:58.256Z,6.31
2023-04-16T02:23:00.841Z,6.33
2023-04-16T02:26:03.776Z,6.29
2023-04-16T02:29:06.585Z,6.32
2023-04-16T02:32:10.445Z,6.32
2023-04-16T02:35:15.321Z,6.22
2023-04-16T02:38:17.541Z,6.16
2023-04-16T02:41:20.364Z,6.12
2023-04-16T02:44:22.594Z,6.06
2023-04-16T02:47:25.430Z,6.05
2023-04-16T02:50:27.658Z,6.28
2023-04-16T02:53:30.184Z,6.33
2023-04-16T02:56:32.403Z,6.16
2023-04-16T02:59:34.897Z,6.14
2023-04-16T03:02:37.368Z,6.17
2023-04-16T03:05:40.459Z,6.17
2023-04-16T03:08:42.774Z,6.18
2023-04-16T03:11:45.391Z,6.18
2023-04-16T03:14:47.674Z,6.08
2023-04-16T03:17:50.135Z,6.28
2023-04-16T03:20:53.248Z,6.24
2023-04-16T03:23:56.127Z,6.21
2023-04-16T03:26:58.895Z,6.17
2023-04-16T03:30:02.427Z,6.16
2023-04-16T03:33:06.863Z,6.13
2023-04-16T03:36:10.138Z,6.12
2023-04-16T03:39:12.483Z,6.02
2023-04-16T03:42:15.121Z,6.05
2023-04-16T03:45:17.335Z,6.01
2023-04-16T03:48:20.455Z,6.09
2023-04-16T03:51:22.817Z,6.17
2023-04-16T03:54:25.488Z,6.16
2023-04-16T03:57:28.272Z,6.15
2023-04-16T04:00:31.507Z,6.15
2023-04-16T04:03:34.455Z,6.16
2023-04-16T04:06:37.432Z,6.22
2023-04-16T04:09:39.948Z,6.35
2023-04-16T04:12:43.404Z,6.36
2023-04-16T04:15:45.951Z,6.46
2023-04-16T04:18:48.211Z,6.68
2023-04-16T04:21:51.036Z,6.77
2023-04-16T04:24:53.379Z,6.85
2023-04-16T04:27:55.901Z,6.86
2023-04-16T04:30:58.990Z,6.85
2023-04-16T04:34:01.521Z,6.80
2023-04-16T04:37:03.914Z,6.96
2023-04-16T04:40:07.243Z,7.01
2023-04-16T04:43:10.006Z,7.16
2023-04-16T04:46:12.676Z,7.17
2023-04-16T04:49:15.707Z,7.25
2023-04-16T04:52:18.191Z,7.50
2023-04-16T04:55:20.669Z,7.73
2023-04-16T04:58:23.158Z,7.73
2023-04-16T05:01:25.597Z,7.60
2023-04-16T05:04:28.158Z,7.46
2023-04-16T05:07:30.758Z,7.45
2023-04-16T05:10:33.475Z,7.59
2023-04-16T05:13:35.644Z,7.56
2023-04-16T05:16:38.377Z,7.44
2023-04-16T05:19:40.601Z,7.43
2023-04-16T05:22:43.064Z,7.42
2023-04-16T05:25:45.384Z,7.58
2023-04-16T05:28:47.897Z,7.57
2023-04-16T05:31:50.276Z,7.69
2023-04-16T05:34:52.757Z,7.65
2023-04-16T05:37:54.883Z,7.62
2023-04-16T05:40:58.634Z,7.70
2023-04-16T05:44:00.856Z,7.69
2023-04-16T05:47:03.328Z,7.64
2023-04-16T05:50:06.308Z,7.70
2023-04-16T05:53:09.537Z,7.68
2023-04-16T05:56:11.798Z,7.84
2023-04-16T05:59:14.360Z,7.88
2023-04-16T06:02:16.766Z,7.88
2023-04-16T06:05:19.393Z,8.15
2023-04-16T06:08:21.677Z,8.24
2023-04-16T06:11:24.280Z,8.32
2023-04-16T06:14:26.454Z,8.27
2023-04-16T06:17:28.945Z,8.21
2023-04-16T06:20:31.384Z,8.16
2023-04-16T06:23:33.892Z,8.39
2023-04-16T06:26:36.157Z,8.73
2023-04-16T06:29:41.579Z,9.03
2023-04-16T06:32:44.531Z,9.42
2023-04-16T06:35:47.236Z,9.76
2023-04-16T06:38:49.365Z,10.21
2023-04-16T06:41:51.967Z,10.65
2023-04-16T06:44:54.105Z,10.95
2023-04-16T06:47:58.874Z,11.11
2023-04-16T06:51:01.882Z,11.19
2023-04-16T06:54:04.597Z,11.15
2023-04-16T06:57:06.922Z,11.50
2023-04-16T07:00:10.048Z,11.44
2023-04-16T07:03:12.421Z,11.70
2023-04-16T07:06:15.273Z,11.58
2023-04-16T07:09:20.503Z,11.72
2023-04-16T07:12:23.243Z,12.14
2023-04-16T07:15:25.541Z,12.71
2023-04-16T07:18:28.070Z,14.08
2023-04-16T07:21:31.550Z,15.76
2023-04-16T07:24:34.228Z,16.44
2023-04-16T07:27:36.465Z,16.86
2023-04-16T07:30:39.053Z,16.05
2023-04-16T07:33:41.313Z,15.71
2023-04-16T07:36:43.801Z,15.01
2023-04-16T07:39:46.018Z,14.83
2023-04-16T07:42:48.829Z,14.98
2023-04-16T07:45:51.031Z,14.80
2023-04-16T07:48:53.564Z,14.56
2023-04-16T07:51:55.728Z,14.20
2023-04-16T07:54:58.212Z,13.95
2023-04-16T07:58:00.643Z,13.93
2023-04-16T08:01:03.155Z,13.65
2023-04-16T08:04:05.846Z,13.48
2023-04-16T08:07:08.187Z,13.09
2023-04-16T08:10:11.037Z,13.11
2023-04-16T08:13:13.294Z,13.38
2023-04-16T08:16:15.796Z,13.81
2023-04-16T08:19:18.437Z,14.05
2023-04-16T08:22:21.208Z,14.60
2023-04-16T08:25:24.688Z,14.54
2023-04-16T08:28:27.140Z,15.04
2023-04-16T08:31:29.536Z,14.63
2023-04-16T08:34:32.426Z,14.99
2023-04-16T08:37:34.642Z,14.98
2023-04-16T08:40:41.645Z,14.93
2023-04-16T08:43:45.403Z,14.57
2023-04-16T08:46:48.692Z,14.08
2023-04-16T08:49:55.599Z,14.15
2023-04-16T08:53:03.517Z,14.33
2023-04-16T08:56:09.797Z,14.32
2023-04-16T08:59:12.689Z,14.59
2023-04-16T09:02:15.504Z,14.87
2023-04-16T09:05:19.113Z,15.46
2023-04-16T09:08:21.571Z,15.45
2023-04-16T09:11:24.418Z,15.45
2023-04-16T09:14:27.056Z,15.22
2023-04-16T09:17:29.717Z,14.82
2023-04-16T09:20:32.046Z,14.95
2023-04-16T09:23:35.371Z,14.38
2023-04-16T09:26:37.886Z,14.43
2023-04-16T09:29:41.669Z,14.32
2023-04-16T09:32:43.902Z,14.27
2023-04-16T09:35:48.070Z,14.00
2023-04-16T09:38:52.435Z,13.81
2023-04-16T09:41:55.289Z,14.21
2023-04-16T09:45:00.329Z,14.14
2023-04-16T09:48:05.962Z,14.04
2023-04-16T09:51:08.239Z,13.87
2023-04-16T09:54:11.164Z,13.95
2023-04-16T09:57:15.860Z,13.99
2023-04-16T10:00:19.187Z,14.59
2023-04-16T10:03:34.518Z,15.24
2023-04-16T10:06:37.174Z,15.60
2023-04-16T10:09:40.758Z,16.01
2023-04-16T10:12:43.613Z,16.47
2023-04-16T10:15:46.277Z,16.48
2023-04-16T10:18:48.454Z,16.83
2023-04-16T10:21:51.360Z,17.58
2023-04-16T10:24:54.704Z,18.23
2023-04-16T10:27:57.418Z,18.77
2023-04-16T10:31:01.450Z,19.72
2023-04-16T10:34:05.236Z,19.52
2023-04-16T10:37:07.415Z,19.84
2023-04-16T10:40:27.235Z,20.72
2023-04-16T10:43:34.242Z,20.64
2023-04-16T10:46:39.255Z,21.27
2023-04-16T10:49:42.690Z,21.21
2023-04-16T10:52:45.734Z,20.82
2023-04-16T10:56:27.628Z,20.42
2023-04-16T10:59:32.195Z,21.74
2023-04-16T11:02:34.450Z,22.07
2023-04-16T11:05:49.078Z,22.49
2023-04-16T11:08:55.040Z,22.57
2023-04-16T11:11:58.302Z,22.45
2023-04-16T11:15:06.841Z,23.52
2023-04-16T11:18:09.771Z,23.19
2023-04-16T11:21:12.735Z,22.49
2023-04-16T11:24:15.345Z,22.01
2023-04-16T11:27:17.520Z,20.98
2023-04-16T11:30:29.396Z,20.57
2023-04-16T11:33:31.661Z,20.09
2023-04-16T11:36:44.011Z,19.84
2023-04-16T11:39:51.255Z,18.97
2023-04-16T11:42:53.824Z,18.57
2023-04-16T11:45:56.927Z,17.91
2023-04-16T11:48:59.902Z,17.75
2023-04-16T11:52:02.176Z,17.83
2023-04-16T11:55:05.041Z,17.62
2023-04-16T11:58:16.629Z,18.11
2023-04-16T12:01:21.362Z,18.06
2023-04-16T12:04:26.064Z,18.00
2023-04-16T12:07:28.419Z,18.05
2023-04-16T12:10:37.238Z,18.24
2023-04-16T12:13:40.013Z,18.52
2023-04-16T12:16:42.749Z,19.07
2023-04-16T12:19:58.643Z,19.30
2023-04-16T12:23:01.407Z,19.17
2023-04-16T12:26:12.514Z,19.80
2023-04-16T12:29:19.533Z,20.04
2023-04-16T12:32:23.345Z,19.78
2023-04-16T12:35:35.099Z,19.48
2023-04-16T12:38:37.321Z,19.20
2023-04-16T12:41:41.809Z,18.66
2023-04-16T12:44:44.035Z,18.50
2023-04-16T12:47:47.200Z,18.09
2023-04-16T12:50:49.464Z,18.10
2023-04-16T12:53:51.947Z,18.37
2023-04-16T12:56:54.220Z,18.27
2023-04-16T12:59:57.601Z,18.80
2023-04-16T13:02:59.971Z,19.53
2023-04-16T13:06:03.451Z,19.77
2023-04-16T13:09:05.792Z,19.22
2023-04-16T13:12:08.310Z,20.12
2023-04-16T13:15:10.838Z,20.79
2023-04-16T13:18:13.315Z,20.82
2023-04-16T13:21:15.717Z,20.00
2023-04-16T13:24:18.204Z,19.49
2023-04-16T13:27:20.465Z,19.47
2023-04-16T13:30:23.125Z,19.05
2023-04-16T13:33:26.069Z,18.89
2023-04-16T13:36:30.021Z,18.30
2023-04-16T13:39:32.172Z,18.40
2023-04-16T13:42:34.608Z,17.95
2023-04-16T13:45:38.036Z,18.37
2023-04-16T13:48:40.765Z,18.48
2023-04-16T13:51:44.639Z,18.35
2023-04-16T13:54:47.061Z,17.99
2023-04-16T13:57:56.273Z,17.59
2023-04-16T14:00:58.834Z,17.68
2023-04-16T14:04:06.441Z,17.22
2023-04-16T14:07:09.109Z,17.54
2023-04-16T14:10:11.921Z,17.68
2023-04-16T14:13:14.222Z,17.32
2023-04-16T14:16:16.764Z,17.50
2023-04-16T14:19:19.015Z,17.42
2023-04-16T14:22:21.574Z,17.51
2023-04-16T14:25:24.348Z,17.20
2023-04-16T14:28:26.879Z,16.92
2023-04-16T14:31:29.111Z,16.84
2023-04-16T14:34:31.617Z,16.74
2023-04-16T14:37:35.885Z,16.77
2023-04-16T14:40:38.501Z,16.71
2023-04-16T14:43:41.424Z,16.83
2023-04-16T14:46:44.606Z,16.73
2023-04-16T14:49:46.828Z,16.60
2023-04-16T14:52:50.281Z,16.77
2023-04-16T14:55:53.220Z,16.63
2023-04-16T14:58:55.864Z,16.52
2023-04-16T15:01:58.826Z,16.48
2023-04-16T15:05:01.556Z,16.45
2023-04-16T15:08:05.402Z,16.47
2023-04-16T15:11:08.083Z,16.61
2023-04-16T15:14:10.539Z,16.67
2023-04-16T15:17:13.312Z,16.72
2023-04-16T15:20:15.940Z,16.63
2023-04-16T15:23:18.408Z,16.36
2023-04-16T15:26:20.706Z,16.79
2023-04-16T15:29:23.208Z,16.95
2023-04-16T15:32:25.637Z,16.88
2023-04-16T15:35:28.252Z,17.17
2023-04-16T15:38:30.982Z,17.26
2023-04-16T15:41:36.282Z,16.97
2023-04-16T15:44:39.255Z,16.64
2023-04-16T15:47:43.140Z,16.64
2023-04-16T15:50:45.423Z,16.59
2023-04-16T15:53:49.549Z,16.47
2023-04-16T15:56:51.738Z,16.43
2023-04-16T16:03:02.577Z,16.12
2023-04-16T16:06:05.625Z,15.95
2023-04-16T16:09:08.202Z,15.96
2023-04-16T16:12:10.885Z,15.81
2023-04-16T16:15:13.009Z,15.82
2023-04-16T16:18:15.535Z,15.75
2023-04-16T16:21:17.790Z,15.65
2023-04-16T16:24:20.241Z,15.53
2023-04-16T16:27:22.920Z,15.48
2023-04-16T16:30:26.388Z,15.50
2023-04-16T16:33:28.724Z,15.57
2023-04-16T16:36:34.183Z,15.50
2023-04-16T16:39:38.560Z,15.72
2023-04-16T16:42:41.518Z,15.81
2023-04-16T16:45:43.965Z,15.84
2023-04-16T16:48:46.644Z,15.79
2023-04-16T16:51:48.939Z,15.80
2023-04-16T16:54:53.189Z,15.69
2023-04-16T16:57:56.004Z,15.62
2023-04-16T17:01:01.168Z,15.67
2023-04-16T17:04:04.227Z,15.51
2023-04-16T17:07:06.855Z,15.51
2023-04-16T17:10:15.840Z,15.42
2023-04-16T17:13:21.439Z,15.41
2023-04-16T17:16:23.991Z,15.22
2023-04-16T17:19:27.423Z,15.12
2023-04-16T17:22:29.631Z,15.22
2023-04-16T17:25:32.150Z,15.11
2023-04-16T17:28:34.404Z,15.11
2023-04-16T17:31:36.994Z,14.99
2023-04-16T17:34:39.279Z,14.88
2023-04-16T17:37:41.769Z,14.75
2023-04-16T17:40:43.995Z,14.71
2023-04-16T17:43:50.560Z,14.66
2023-04-16T17:46:52.773Z,14.57
2023-04-16T17:49:55.485Z,14.51
2023-04-16T17:53:03.226Z,14.51
2023-04-16T17:56:05.768Z,14.38
2023-04-16T17:59:07.971Z,14.28
2023-04-16T18:02:10.587Z,14.21
2023-04-16T18:05:13.272Z,14.15
2023-04-16T18:08:15.972Z,14.00
2023-04-16T18:11:18.661Z,13.96
2023-04-16T18:14:21.486Z,13.88
2023-04-16T18:17:24.170Z,13.85
2023-04-16T18:20:27.166Z,13.86
2023-04-16T18:23:29.709Z,13.79
2023-04-16T18:26:35.668Z,13.78
2023-04-16T18:29:39.848Z,13.66
2023-04-16T18:32:54.987Z,13.61
2023-04-16T18:36:06.078Z,13.64
2023-04-16T18:39:08.248Z,13.79
2023-04-16T18:42:10.763Z,13.74
2023-04-16T18:45:20.979Z,13.57
2023-04-16T18:48:24.166Z,13.50
2023-04-16T18:51:27.296Z,13.41
2023-04-16T18:54:29.859Z,13.25
2023-04-16T18:57:32.198Z,13.34
2023-04-16T19:00:34.920Z,13.31
2023-04-16T19:03:37.335Z,13.36
2023-04-16T19:06:40.300Z,13.36
2023-04-16T19:09:42.670Z,13.32
2023-04-16T19:12:45.371Z,13.32
2023-04-16T19:15:47.646Z,13.29
2023-04-16T19:18:50.627Z,13.35
2023-04-16T19:21:52.844Z,13.37
2023-04-16T19:24:55.574Z,13.31
2023-04-16T19:27:57.876Z,13.36
2023-04-16T19:31:00.416Z,13.36
2023-04-16T19:34:02.633Z,13.20
2023-04-16T19:37:05.275Z,13.16
2023-04-16T19:40:08.174Z,13.32
2023-04-16T19:43:10.594Z,13.32
2023-04-16T19:46:12.853Z,13.34
2023-04-16T19:49:15.488Z,13.23
2023-04-16T19:52:17.766Z,13.24
2023-04-16T19:55:20.278Z,13.26
2023-04-16T19:58:22.455Z,13.12
2023-04-16T20:01:25.067Z,13.03
2023-04-16T20:04:27.662Z,12.97
2023-04-16T20:07:30.275Z,12.94
2023-04-16T20:10:32.886Z,12.92
2023-04-16T20:13:37.461Z,12.96
2023-04-16T20:16:39.992Z,12.93
2023-04-16T20:19:42.228Z,12.93
2023-04-16T20:22:44.809Z,12.85
2023-04-16T20:25:47.287Z,12.83
2023-04-16T20:28:49.789Z,12.85
2023-04-16T20:31:52.198Z,12.90
2023-04-16T20:34:55.660Z,12.90
2023-04-16T20:37:57.860Z,12.98
2023-04-16T20:41:10.272Z,12.96
2023-04-16T20:44:18.162Z,13.01
2023-04-16T20:47:22.146Z,13.01
2023-04-16T20:50:24.811Z,12.93
2023-04-16T20:53:28.003Z,12.96
2023-04-16T20:56:30.208Z,12.92
2023-04-16T20:59:32.744Z,12.98
2023-04-16T21:02:35.104Z,13.08
2023-04-16T21:05:37.820Z,13.06
2023-04-16T21:08:40.070Z,13.04
2023-04-16T21:11:42.597Z,13.02
2023-04-16T21:14:44.780Z,12.97
2023-04-16T21:17:47.311Z,13.00
2023-04-16T21:20:49.573Z,12.86
2023-04-16T21:23:52.093Z,12.96
2023-04-16T21:26:54.342Z,13.01
2023-04-16T21:29:56.826Z,12.87
2023-04-16T21:32:59.042Z,12.93
2023-04-16T21:36:01.765Z,12.81
2023-04-16T21:39:03.959Z,12.82
2023-04-16T21:42:06.432Z,12.83
2023-04-16T21:45:09.905Z,12.85
2023-04-16T21:48:12.476Z,12.86
2023-04-16T21:51:15.818Z,12.79
2023-04-16T21:54:20.114Z,12.83
2023-04-16T21:57:22.212Z,12.87
2023-04-16T22:00:24.941Z,12.81
2023-04-16T22:03:27.778Z,12.86
2023-04-16T22:06:30.586Z,12.78
2023-04-16T22:09:32.685Z,12.69
2023-04-16T22:12:37.829Z,12.60
2023-04-16T22:15:40.508Z,12.63
2023-04-16T22:18:43.059Z,12.60
2023-04-16T22:21:46.287Z,12.50
2023-04-16T22:24:49.024Z,12.48
2023-04-16T22:27:51.214Z,12.39
2023-04-16T22:30:53.821Z,12.39
2023-04-16T22:33:56.070Z,12.39
2023-04-16T22:36:58.719Z,12.38
2023-04-16T22:40:01.006Z,12.45
2023-04-16T22:43:04.463Z,12.47
2023-04-16T22:46:07.979Z,12.51
2023-04-16T22:49:10.696Z,12.46
2023-04-16T22:52:13.097Z,12.47
2023-04-16T22:55:15.788Z,12.34
2023-04-16T22:58:18.019Z,12.24
2023-04-16T23:01:20.517Z,12.22
2023-04-16T23:04:22.952Z,12.25
2023-04-16T23:07:25.584Z,12.30
2023-04-16T23:10:27.821Z,12.31
2023-04-16T23:13:30.359Z,12.22
2023-04-16T23:16:32.572Z,12.27
2023-04-16T23:19:35.044Z,12.32
2023-04-16T23:22:37.204Z,12.35
2023-04-16T23:25:41.331Z,12.36
2023-04-16T23:28:43.484Z,12.42
2023-04-16T23:31:45.980Z,12.35
2023-04-16T23:34:48.309Z,12.34
2023-04-16T23:37:50.819Z,12.37
2023-04-16T23:40:52.997Z,12.34
2023-04-16T23:43:55.436Z,12.39
2023-04-16T23:46:57.662Z,12.38
2023-04-16T23:50:00.440Z,12.41
2023-04-16T23:53:02.602Z,12.47
2023-04-16T23:56:05.345Z,12.39
2023-04-16T23:59:10.530Z,12.39
